METAR Data
IDs: Format: Raw Decoded Include TAF

Data at: 1641 UTC 03 Jun 2020

VTUK 031600Z 19004KT 9000 FEW030 SCT100 26/25 Q1010 NOSIG
VTUK 031500Z 19005KT 9000 FEW030 BKN100 27/25 Q1009 NOSIG
VTUK 031400Z 22005KT 9000 FEW025 BKN100 26/25 Q1009 NOSIG
VTUK 031300Z 21005KT 9000 FEW010 SCT080 26/25 Q1008 NOSIG
VTUK 031200Z 17005KT 8000 -RA SCT025 SCT080 26/25 Q1007 NOSIG
VTUK 031100Z 28005KT 7000 VCSH FEW018CB BKN025 BKN080 25/24 Q1006 RETSRA NOSIG
VTUK 031000Z 22012G31KT 190V260 4000 TSRA FEW018CB BKN025 BKN080 25/23 Q1006 WS ALL RWY TEMPO TL1045 2500 +TSRA
VTUK 030900Z 12004KT 070V180 9999 BKN030 33/24 Q1006 NOSIG
VTUK 030700Z VRB03KT 9999 SCT030 33/24 Q1007 NOSIG
VTUK 030600Z 33003KT 240V030 9999 SCT030 32/24 Q1009 NOSIG
VTUK 030500Z 34004KT 280V050 9999 SCT030 31/23 Q1010 NOSIG
VTUK 030400Z VRB03KT 9999 SCT025 31/24 Q1010 NOSIG
VTUK 030300Z VRB02KT 9999 FEW025 29/24 Q1010 NOSIG
VTUK 030200Z 25005KT 160V290 9999 FEW025 28/24 Q1010 NOSIG
VTUK 030100Z VRB01KT 9999 FEW025 27/24 Q1010 NOSIG
VTUK 030000Z VRB02KT 9999 FEW030 25/23 Q1010 NOSIG
VTUK 022300Z 20003KT 9999 FEW030 24/23 Q1009 NOSIG
VTUK 022200Z 23003KT 8000 FEW010 SCT030 24/23 Q1009 NOSIG
VTUK 022100Z 20004KT 160V240 9000 SCT010 SCT030 25/24 Q1009 NOSIG
VTUK 022000Z 19004KT 150V220 9000 BKN010 25/24 Q1009 NOSIG
VTUK 021900Z 15004KT 120V200 9000 FEW030 SCT100 25/24 Q1009 NOSIG
VTUK 021800Z 15004KT 110V190 9000 FEW030 SCT100 25/24 Q1010 NOSIG
VTUK 021700Z 17003KT 120V210 9000 FEW030 SCT100 25/25 Q1011 NOSIG
VTUK 021600Z 16003KT 130V190 9999 FEW030 SCT100 25/24 Q1011 NOSIG
VTUK 021500Z 14003KT 100V190 9000 SCT030 BKN100 25/24 Q1011 NOSIG
VTUK 021400Z 14003KT 090V170 9999 SCT030 BKN100 25/24 Q1011 NOSIG
VTUK 021300Z 17002KT 9999 SCT030 BKN100 26/24 Q1010 NOSIG
VTUK 021200Z 19004KT 9999 SCT030 SCT100 26/24 Q1008 NOSIG
VTUK 021100Z 15004KT 100V210 9999 SCT025 SCT100 26/25 Q1007 NOSIG
VTUK 021000Z VRB01KT 9000 FEW018CB SCT025 26/24 Q1008 NOSIG
VTUK 020900Z 10003KT 010V160 9000 -RA SCT030 BKN100 25/24 Q1008 RETS TEMPO FM1030 TL1100 3000 TSRA
VTUK 020800Z 17003KT 080V220 5000 -TSRA SCT025 24/23 Q1008 NOSIG
VTUK 020700Z 10005KT 060V130 8000 -TSRA FEW018CB BKN020 25/24 Q1010 NOSIG
VTUK 020600Z 09007KT 060V130 7000 -TSRA FEW018CB BKN020 26/25 Q1011 NOSIG
VTUK 020500Z 30013KT 250V330 4000 TSRA FEW018CB BKN020 27/24 Q1010 TEMPO FM0520 TL0550 2000 +TSRA

VTUD 031200Z 14006KT 9999 FEW045 31/24 Q1006 NOSIG
VTUD 031100Z 12005KT 9999 FEW040 32/24 Q1005 NOSIG
VTUD 031000Z 11004KT 050V160 9999 FEW041 33/24 Q1005 NOSIG
VTUD 030900Z 09004KT 060V170 9999 SCT045 34/25 Q1005 NOSIG
VTUD 030700Z VRB03KT 9999 SCT035 32/24 Q1007 NOSIG
VTUD 030600Z VRB02KT 9999 SCT030 32/23 Q1008 NOSIG
VTUD 030500Z VRB03KT 9999 BKN025 31/23 Q1009 NOSIG
VTUD 030400Z VRB02KT 9999 BKN025 29/23 Q1010 NOSIG
VTUD 030300Z VRB03KT 9999 BKN020 28/23 Q1010 NOSIG
VTUD 030200Z VRB02KT 9999 BKN015 28/23 Q1010 NOSIG
VTUD 030100Z VRB02KT 9999 BKN010 26/23 Q1010 NOSIG
VTUD 030000Z 15004KT 110V190 9999 BKN005 25/24 Q1009 NOSIG
VTUD 021200Z 20004KT 180V240 9999 FEW020 SCT040 26/24 Q1008 NOSIG
VTUD 021100Z 29003KT 210V320 9999 FEW005 SCT040 26/22 Q1007 NOSIG
VTUD 021000Z 24005KT 210V270 9999 -RA FEW020 SCT040 26/23 Q1006 NOSIG
VTUD 020900Z 16008KT 130V190 9999 FEW015CB BKN030 27/23 Q1007 TEMPO TL1100 3000 TSRA
VTUD 020800Z 14011KT 100V160 9999 FEW015CB BKN030 28/23 Q1008 TEMPO TL0900 3000 TSRA
VTUD 020700Z 05008KT 010V080 9999 BKN035 32/25 Q1008 NOSIG
VTUD 020600Z 33005KT 280V040 9999 SCT030 33/24 Q1009 NOSIG
VTUD 020500Z VRB05KT 9999 SCT025 32/24 Q1009 NOSIG

VTUL 031200Z 19003KT 140V240 9999 SCT030 27/24 Q1006 NOSIG
VTUL 031100Z 18004KT 140V220 9999 SCT035 28/24 Q1005 NOSIG
VTUL 031000Z 17003KT 110V210 9999 SCT035 SCT070 28/24 Q1005 NOSIG
VTUL 030900Z 22006KT 190V260 9999 SCT035 28/23 Q1006 RETS NOSIG
VTUL 030700Z VRB04KT 9999 VCSH FEW020CB SCT030 33/24 Q1007 NOSIG
VTUL 030600Z 17005KT 110V220 9999 SCT030 33/25 Q1008 NOSIG
VTUL 030500Z 10003KT 050V180 9999 SCT030 31/25 Q1009 NOSIG
VTUL 030400Z 31003KT 230V020 9999 SCT025 30/24 Q1010 NOSIG
VTUL 030300Z VRB02KT 9999 SCT020 29/24 Q1011 NOSIG
VTUL 030200Z VRB02KT 9999 BKN020 27/24 Q1011 NOSIG
VTUL 030100Z 21004KT 3000 BR FEW005 SCT016 BKN060 25/24 Q1010 NOSIG
VTUL 030000Z VRB02KT 5000 BR FEW025 OVC100 24/24 Q1010 NOSIG
VTUL 022300Z 00000KT 8000 SCT025 23/23 Q1009 NOSIG
VTUL 021200Z 22003KT 9999 SCT025 BKN070 24/24 Q1008 NOSIG
VTUL 021100Z 21004KT 9999 FEW020 BKN070 25/24 Q1007 NOSIG
VTUL 021000Z 24003KT 9999 SCT025 BKN070 25/25 Q1007 RETS NOSIG
VTUL 020900Z 27003KT 230V320 7000 -TSRA FEW020CB SCT028 BKN060 25/24 Q1007 RERA NOSIG
VTUL 020800Z 03004KT 9999 TS VCSH FEW018CB SCT025 BKN070 28/25 Q1007 NOSIG
VTUL 020700Z 01008KT 320V060 9999 3000SW -RA BKN030 BKN070 30/25 Q1008 NOSIG
VTUL 020600Z VRB03KT 9999 SCT035 SCT070 34/24 Q1009 NOSIG
VTUL 020500Z VRB03KT 9999 SCT035 33/24 Q1010 NOSIG

VTUI 031100Z VRB02KT 9999 SCT030 SCT100 32/25 Q1005 NOSIG
VTUI 031000Z 20004KT 130V250 9999 BKN030 32/24 Q1005 NOSIG
VTUI 030900Z 17003KT 130V220 9999 VCSH FEW020TCU BKN030 32/25 Q1005 NOSIG
VTUI 030700Z 34004KT 220V030 9999 VCSH FEW020CB BKN025 32/24 Q1007 NOSIG
VTUI 030600Z VRB04KT 9999 BKN025 31/24 Q1008 NOSIG
VTUI 030500Z VRB04KT 9999 BKN025 30/24 Q1009 NOSIG
VTUI 030400Z VRB05KT 9999 BKN020 29/24 Q1009 NOSIG
VTUI 030300Z VRB03KT 9999 BKN015 29/25 Q1010 NOSIG
VTUI 030200Z VRB03KT 9999 BKN015 29/23 Q1010 NOSIG
VTUI 030100Z 15004KT 070V180 9999 SCT010 28/24 Q1009 NOSIG
VTUI 030000Z 16005KT 9999 SCT008 SCT100 27/24 Q1009 NOSIG
VTUI 022300Z 14003KT 9999 SCT008 BKN100 25/24 Q1009 NOSIG
VTUI 021100Z VRB03KT 9999 SCT020 27/25 Q1007 NOSIG
VTUI 021000Z 27004KT 200V310 9999 BKN020 27/25 Q1007 NOSIG
VTUI 020900Z 28004KT 230V330 9999 SCT020 SCT100 28/24 Q1007 NOSIG
VTUI 020800Z 24008KT 210V270 9999 SCT020 BKN080 28/24 Q1008 NOSIG
VTUI 020700Z 21008KT 9999 FEW010 SCT020 BKN080 28/24 Q1009 NOSIG
VTUI 020600Z 22009KT 9999 FEW010 SCT020 BKN080 29/24 Q1010 RETSRA NOSIG
VTUI 020500Z 27005KT 230V310 8000 -TSRA FEW010 FEW018CB BKN020 26/26 Q1010 RERA NOSIG

VTUW 031300Z VRB02KT CAVOK 29/27 Q1007 NOSIG
VTUW 031200Z 17003KT 9999 FEW035 30/26 Q1006 NOSIG
VTUW 031100Z VRB02KT 9999 FEW030 32/25 Q1005 NOSIG
VTUW 031000Z 18003KT 140V220 9999 FEW030 32/24 Q1005 NOSIG
VTUW 030900Z VRB02KT 9999 SCT030 33/25 Q1005 NOSIG
VTUW 030700Z VRB02KT 9999 SCT030 32/25 Q1007 NOSIG
VTUW 030600Z VRB02KT 9999 SCT025 31/24 Q1009 NOSIG
VTUW 030500Z VRB03KT 9999 SCT023 30/25 Q1009 NOSIG
VTUW 030400Z VRB03KT 9999 SCT020 29/24 Q1010 NOSIG
VTUW 030300Z VRB02KT 9999 SCT018 28/24 Q1010 NOSIG
VTUW 030200Z 07003KT 010V150 9999 SCT012 27/24 Q1010 NOSIG
VTUW 030100Z 13004KT 090V160 9999 BKN008 25/24 Q1010 NOSIG
VTUW 030000Z 14006KT 9999 SCT007 BKN100 25/24 Q1010 NOSIG
VTUW 021300Z 17004KT 140V210 9999 FEW025 27/26 Q1010 NOSIG
VTUW 021200Z 15005KT 9999 FEW025 28/27 Q1008 NOSIG
VTUW 021100Z 26004KT 220V300 9999 FEW025 30/25 Q1007 NOSIG
VTUW 021000Z 28005KT 210V320 9999 SCT025 31/25 Q1006 NOSIG
VTUW 020900Z VRB01KT 9999 FEW020 SCT100 30/25 Q1007 NOSIG
VTUW 020800Z VRB03KT 9999 FEW020 BKN100 29/25 Q1008 NOSIG
VTUW 020700Z VRB03KT 9999 TS VCSH FEW018CB SCT020 BKN100 30/25 Q1009 NOSIG
VTUW 020600Z 22004KT 140V290 9999 TS VCSH FEW018CB SCT020 BKN080 30/25 Q1010 TEMPO FM0640 TL0720 5000 TSRA
VTUW 020500Z 19005KT 140V240 9999 SCT019 29/25 Q1011 NOSIG